Time;durP1;ratioP1;P1;durP2;ratioP2;P2;SDS_P1;SDS_P2;PMS_P1;PMS_P2;Temp;Humidity;BMP_temperature;BMP_pressure;BME280_temperature;BME280_humidity;BME280_pressure;Samples;Min_cycle;Max_cycle;Signal;HPM_P1;HPM_P2
2022/05/11 00:01:53;;;;;;;10.43;6.40;;;13.80;99.90;;;;;;5050492;28;20040;-73
2022/05/11 00:04:19;;;;;;;14.35;7.75;;;13.80;99.90;;;;;;5051967;28;20049;-73
2022/05/11 00:06:45;;;;;;;15.95;6.72;;;13.80;99.90;;;;;;5050603;28;20044;-73
2022/05/11 00:09:12;;;;;;;11.57;6.45;;;13.80;99.90;;;;;;5051901;28;20037;-73
2022/05/11 00:11:39;;;;;;;11.25;7.20;;;13.80;99.90;;;;;;5051793;28;20033;-72
2022/05/11 00:14:06;;;;;;;15.32;8.82;;;13.80;99.90;;;;;;5050969;28;20380;-73
2022/05/11 00:16:32;;;;;;;8.95;5.88;;;13.90;99.90;;;;;;5051828;28;20494;-73
2022/05/11 00:18:58;;;;;;;11.02;6.68;;;13.90;99.90;;;;;;5051716;28;20044;-73
2022/05/11 00:21:24;;;;;;;9.85;7.20;;;13.90;99.90;;;;;;5033715;28;20049;-73
2022/05/11 00:23:52;;;;;;;10.68;6.47;;;13.90;99.90;;;;;;5051919;28;20045;-73
2022/05/11 00:26:17;;;;;;;9.13;6.43;;;14.00;99.90;;;;;;5051856;28;20083;-73
2022/05/11 00:28:43;;;;;;;11.15;6.80;;;14.00;99.90;;;;;;5051650;28;20069;-73
2022/05/11 00:31:09;;;;;;;12.15;7.22;;;14.00;99.90;;;;;;5051407;28;20072;-73
2022/05/11 00:33:34;;;;;;;10.73;6.43;;;13.90;99.90;;;;;;5051561;28;20033;-73
2022/05/11 00:36:00;;;;;;;9.63;6.70;;;13.90;99.90;;;;;;5051617;28;20040;-73
2022/05/11 00:38:27;;;;;;;13.05;7.13;;;14.00;99.90;;;;;;5050641;28;20037;-72
2022/05/11 00:40:59;;;;;;;11.52;6.22;;;14.00;99.90;;;;;;5051508;28;20047;-73
2022/05/11 00:43:26;;;;;;;12.95;7.20;;;14.00;99.90;;;;;;5051684;28;20051;-73
2022/05/11 00:45:51;;;;;;;13.73;6.95;;;13.90;99.90;;;;;;5051466;28;20045;-73
2022/05/11 00:51:14;;;;;;;10.48;7.00;;;13.90;99.90;;;;;;5055440;28;20049;-73
2022/05/11 00:53:43;;;;;;;13.68;6.78;;;13.90;99.90;;;;;;5055708;28;20048;-73
2022/05/11 00:56:08;;;;;;;10.25;6.97;;;13.90;99.90;;;;;;5055584;28;20049;-73
2022/05/11 00:58:41;;;;;;;11.18;6.53;;;13.90;99.90;;;;;;5055499;28;20037;-73
2022/05/11 01:01:07;;;;;;;11.52;7.47;;;13.90;99.90;;;;;;5054498;28;20103;-73
2022/05/11 01:04:02;;;;;;;12.68;7.15;;;13.90;99.90;;;;;;5055549;28;20511;-73
2022/05/11 01:06:31;;;;;;;9.57;6.63;;;13.90;99.90;;;;;;5043412;28;20060;-73
2022/05/11 01:09:00;;;;;;;11.40;6.75;;;13.90;99.90;;;;;;5055173;28;20037;-72
2022/05/11 01:11:26;;;;;;;11.20;7.00;;;13.90;99.90;;;;;;5055164;28;20065;-73
2022/05/11 01:13:52;;;;;;;12.98;6.93;;;13.90;99.90;;;;;;5055392;28;20506;-72
2022/05/11 01:16:17;;;;;;;11.73;8.07;;;13.90;99.90;;;;;;5055223;28;20112;-72
2022/05/11 01:18:44;;;;;;;11.57;7.30;;;14.00;99.90;;;;;;5055245;28;20414;-73
2022/05/11 01:21:09;;;;;;;14.10;7.05;;;14.00;99.90;;;;;;5054882;28;20037;-73
2022/05/11 01:23:53;;;;;;;12.18;7.43;;;13.90;99.90;;;;;;5054977;28;20040;-73
2022/05/11 01:26:19;;;;;;;11.38;6.25;;;13.90;99.90;;;;;;5054910;28;20044;-73
2022/05/11 01:28:47;;;;;;;8.80;6.38;;;13.90;99.90;;;;;;5054997;28;20065;-73
2022/05/11 01:31:15;;;;;;;12.13;6.32;;;14.00;99.90;;;;;;5054608;28;20044;-73
2022/05/11 01:33:44;;;;;;;10.90;5.90;;;13.90;99.90;;;;;;5053606;28;20041;-73
2022/05/11 01:36:15;;;;;;;14.65;6.38;;;14.00;99.90;;;;;;5053476;28;20410;-73
2022/05/11 01:38:45;;;;;;;11.10;6.00;;;14.00;99.90;;;;;;5054967;28;20429;-73
2022/05/11 01:41:38;;;;;;;8.85;5.15;;;14.00;99.90;;;;;;5054373;28;20033;-73
2022/05/11 01:44:09;;;;;;;10.23;6.03;;;14.00;99.90;;;;;;5037125;28;20041;-73
2022/05/11 01:46:35;;;;;;;10.95;5.63;;;14.00;99.90;;;;;;5054818;28;20064;-73
2022/05/11 01:49:02;;;;;;;10.55;5.53;;;13.90;99.90;;;;;;5054741;28;20143;-73
2022/05/11 01:51:28;;;;;;;9.70;5.35;;;13.90;99.90;;;;;;5054288;28;20526;-73
2022/05/11 01:53:54;;;;;;;10.75;5.75;;;13.90;99.90;;;;;;5054552;28;20033;-72
2022/05/11 01:56:22;;;;;;;10.18;5.95;;;13.90;99.90;;;;;;5054419;28;20068;-73
2022/05/11 01:58:49;;;;;;;8.20;5.50;;;13.80;99.90;;;;;;5053359;28;20047;-73
2022/05/11 02:01:16;;;;;;;11.10;5.43;;;13.90;99.90;;;;;;5054068;28;20040;-73
2022/05/11 02:03:42;;;;;;;15.15;5.45;;;13.90;99.90;;;;;;5054531;28;20041;-73
2022/05/11 02:08:52;;;;;;;8.77;5.70;;;13.90;99.90;;;;;;5054182;28;20044;-73
2022/05/11 02:11:18;;;;;;;10.43;5.80;;;13.80;99.90;;;;;;5053796;28;20037;-73
2022/05/11 02:13:45;;;;;;;12.00;6.45;;;13.80;99.90;;;;;;5052908;28;20108;-73
2022/05/11 02:16:11;;;;;;;7.15;5.07;;;13.80;99.90;;;;;;5054226;28;20037;-73
2022/05/11 02:18:37;;;;;;;7.25;5.40;;;13.80;99.90;;;;;;5053063;28;20055;-73
2022/05/11 02:21:04;;;;;;;9.90;5.68;;;13.80;99.90;;;;;;5052452;28;20124;-73
2022/05/11 02:23:29;;;;;;;8.70;6.00;;;13.80;99.90;;;;;;5052940;28;20144;-73
2022/05/11 02:25:55;;;;;;;9.93;5.75;;;13.80;99.90;;;;;;5053763;28;20542;-73
2022/05/11 02:28:22;;;;;;;10.85;5.53;;;13.70;99.90;;;;;;5054068;28;20073;-73
2022/05/11 02:30:49;;;;;;;11.00;5.85;;;13.70;99.90;;;;;;5053563;28;20045;-73
2022/05/11 02:33:15;;;;;;;9.20;5.80;;;13.70;99.90;;;;;;5052575;28;20041;-73
2022/05/11 02:35:42;;;;;;;9.07;5.88;;;13.70;99.90;;;;;;5052606;28;20394;-73
2022/05/11 02:38:11;;;;;;;9.27;5.53;;;13.70;99.90;;;;;;5053777;28;20094;-73
2022/05/11 02:40:39;;;;;;;8.93;5.78;;;13.80;99.90;;;;;;5052081;28;20051;-73
2022/05/11 02:43:04;;;;;;;9.88;5.55;;;13.70;99.90;;;;;;5035729;28;20506;-72
2022/05/11 02:45:32;;;;;;;9.48;5.65;;;13.70;99.90;;;;;;5053363;28;20044;-73
2022/05/11 02:48:01;;;;;;;9.18;5.40;;;13.80;99.90;;;;;;5052269;28;20063;-73
2022/05/11 02:50:31;;;;;;;11.93;5.53;;;13.80;99.90;;;;;;5051852;28;20068;-73
2022/05/11 02:52:56;;;;;;;8.63;4.95;;;13.80;99.90;;;;;;5053633;28;20039;-73
2022/05/11 02:55:22;;;;;;;10.98;5.50;;;13.80;99.90;;;;;;5053210;28;20487;-73
2022/05/11 02:57:48;;;;;;;8.63;5.05;;;13.70;99.90;;;;;;5053455;28;20037;-73
2022/05/11 03:00:18;;;;;;;8.30;4.97;;;13.70;99.90;;;;;;5053097;28;20037;-73
2022/05/11 03:02:44;;;;;;;10.73;5.80;;;13.70;99.90;;;;;;5051896;28;20099;-73
2022/05/11 03:05:11;;;;;;;8.57;4.93;;;13.70;99.90;;;;;;5052941;28;20048;-73
2022/05/11 03:07:37;;;;;;;7.60;4.82;;;13.70;99.90;;;;;;5093162;22;20053;-68
2022/05/11 03:10:03;;;;;;;8.43;4.97;;;13.70;99.90;;;;;;5073054;28;20463;-68
2022/05/11 03:12:29;;;;;;;11.07;4.97;;;13.80;99.90;;;;;;5072379;28;20036;-68
2022/05/11 03:14:54;;;;;;;9.77;4.97;;;13.80;99.90;;;;;;5072801;28;20056;-68
2022/05/11 03:17:20;;;;;;;9.60;4.50;;;13.80;99.90;;;;;;5071198;28;20079;-68
2022/05/11 03:19:46;;;;;;;6.70;4.13;;;13.70;99.90;;;;;;5071837;28;20101;-68
2022/05/11 03:22:12;;;;;;;10.88;4.95;;;13.70;99.90;;;;;;5072526;28;20485;-68
2022/05/11 03:24:38;;;;;;;10.93;4.78;;;13.80;99.90;;;;;;5072952;28;20040;-68
2022/05/11 03:27:04;;;;;;;7.78;4.45;;;13.80;99.90;;;;;;5072661;28;20071;-68
2022/05/11 03:29:30;;;;;;;7.28;4.68;;;13.80;99.90;;;;;;5072795;28;20045;-68
2022/05/11 03:34:40;;;;;;;9.73;4.82;;;13.80;99.90;;;;;;5072426;28;20124;-68
2022/05/11 03:37:15;;;;;;;9.77;5.00;;;13.80;99.90;;;;;;5072716;28;20067;-68
2022/05/11 03:39:41;;;;;;;8.13;4.97;;;13.80;99.90;;;;;;5072527;28;20058;-68
2022/05/11 03:42:10;;;;;;;8.55;5.45;;;13.80;99.90;;;;;;5072141;28;20028;-68
2022/05/11 03:44:36;;;;;;;8.95;5.00;;;13.80;99.90;;;;;;5072403;28;20513;-68
2022/05/11 03:47:02;;;;;;;9.18;5.00;;;13.80;99.90;;;;;;5072285;28;20074;-68
2022/05/11 03:49:28;;;;;;;8.57;5.47;;;13.80;99.90;;;;;;5072280;28;20498;-68
2022/05/11 03:51:53;;;;;;;8.20;4.70;;;13.80;99.90;;;;;;5071022;28;20037;-69
2022/05/11 03:54:19;;;;;;;9.32;6.05;;;13.80;99.90;;;;;;5071301;28;20037;-69
2022/05/11 03:56:45;;;;;;;9.93;4.75;;;13.80;99.90;;;;;;5072124;28;20106;-68
2022/05/11 03:59:11;;;;;;;11.73;5.35;;;13.80;99.90;;;;;;5072321;28;20049;-68
2022/05/11 04:01:36;;;;;;;11.88;5.93;;;13.90;99.90;;;;;;5071880;28;20040;-68
2022/05/11 04:04:02;;;;;;;7.88;5.55;;;13.90;99.90;;;;;;5072074;28;20111;-68
2022/05/11 04:06:29;;;;;;;9.57;5.22;;;13.80;99.90;;;;;;5071999;28;20114;-68
2022/05/11 04:08:55;;;;;;;8.52;5.35;;;13.80;99.90;;;;;;5072065;28;20494;-68
2022/05/11 04:11:22;;;;;;;11.63;5.68;;;13.80;99.90;;;;;;5071501;28;20093;-69
2022/05/11 04:13:49;;;;;;;9.38;4.88;;;13.90;99.90;;;;;;5071947;28;20037;-68
2022/05/11 04:16:15;;;;;;;9.70;5.15;;;13.90;99.90;;;;;;5071758;28;20032;-68
2022/05/11 04:18:42;;;;;;;11.52;5.32;;;13.90;99.90;;;;;;5071768;28;20091;-68
2022/05/11 04:21:08;;;;;;;8.35;4.82;;;13.90;99.90;;;;;;5070366;28;20048;-68
2022/05/11 04:23:34;;;;;;;9.05;4.72;;;13.90;99.90;;;;;;5071214;28;20112;-68
2022/05/11 04:26:00;;;;;;;10.20;5.35;;;13.90;99.90;;;;;;5071800;28;20524;-69
2022/05/11 04:28:25;;;;;;;8.25;4.38;;;13.90;99.90;;;;;;5071821;28;20032;-68
2022/05/11 04:30:59;;;;;;;10.18;4.72;;;13.90;99.90;;;;;;5071394;28;20486;-68
2022/05/11 04:33:24;;;;;;;8.55;5.03;;;13.90;99.90;;;;;;5072082;28;20036;-68
2022/05/11 04:35:50;;;;;;;10.75;4.93;;;13.80;99.90;;;;;;5071819;28;20043;-68
2022/05/11 04:38:15;;;;;;;8.38;4.75;;;13.80;99.90;;;;;;5071765;28;20067;-68
2022/05/11 04:40:41;;;;;;;8.52;5.15;;;13.90;99.90;;;;;;5071497;28;20524;-68
2022/05/11 04:43:10;;;;;;;8.50;4.63;;;13.90;99.90;;;;;;5071665;28;20509;-68
2022/05/11 04:45:38;;;;;;;9.27;4.82;;;13.90;99.90;;;;;;5071464;28;20040;-68
2022/05/11 04:48:03;;;;;;;9.35;4.57;;;13.90;99.90;;;;;;5071879;28;20040;-68
2022/05/11 04:50:29;;;;;;;11.23;4.57;;;13.90;99.90;;;;;;5071477;28;20120;-69
2022/05/11 04:52:54;;;;;;;8.95;4.43;;;13.90;99.90;;;;;;5070390;28;20068;-69
2022/05/11 04:55:20;;;;;;;13.05;5.25;;;14.00;99.90;;;;;;5071676;28;20045;-67
2022/05/11 04:57:46;;;;;;;10.63;4.85;;;14.00;99.90;;;;;;5071470;28;20063;-68
2022/05/11 05:00:13;;;;;;;9.23;4.18;;;14.00;99.90;;;;;;5069907;28;20051;-68
2022/05/11 05:02:39;;;;;;;8.95;4.78;;;14.00;99.90;;;;;;5071775;28;20068;-68
2022/05/11 05:05:05;;;;;;;9.55;4.60;;;14.10;99.90;;;;;;5071683;28;20082;-68
2022/05/11 05:07:35;;;;;;;10.15;4.63;;;14.00;99.90;;;;;;5071294;28;20055;-68
2022/05/11 05:10:05;;;;;;;8.18;4.57;;;14.10;99.90;;;;;;5071037;28;20041;-68
2022/05/11 05:12:31;;;;;;;8.35;4.53;;;14.10;99.90;;;;;;5070109;28;20490;-68
2022/05/11 05:14:56;;;;;;;8.18;4.72;;;14.10;99.90;;;;;;5071493;28;20037;-69
2022/05/11 05:17:22;;;;;;;11.45;4.40;;;14.10;99.90;;;;;;5071515;28;20039;-68
2022/05/11 05:19:49;;;;;;;8.50;4.15;;;14.20;99.90;;;;;;5071335;28;20506;-68
2022/05/11 05:22:15;;;;;;;11.20;4.93;;;14.20;99.90;;;;;;5069770;28;20116;-68
2022/05/11 05:24:42;;;;;;;9.95;3.60;;;14.20;99.90;;;;;;5071373;28;20040;-68
2022/05/11 05:27:09;;;;;;;12.98;6.07;;;14.20;99.90;;;;;;5070107;28;20040;-68
2022/05/11 05:32:19;;;;;;;9.27;4.82;;;14.30;99.90;;;;;;5071323;28;20047;-68
2022/05/11 05:34:45;;;;;;;9.73;4.60;;;14.30;99.90;;;;;;5072221;28;20033;-68
2022/05/11 05:37:16;;;;;;;11.13;5.55;;;14.30;99.90;;;;;;5056946;28;20037;-68
2022/05/11 05:39:42;;;;;;;11.88;5.80;;;14.30;99.90;;;;;;5074728;28;20398;-68
2022/05/11 05:42:09;;;;;;;11.48;4.03;;;14.40;99.90;;;;;;5074726;28;20056;-68
2022/05/11 05:44:37;;;;;;;14.32;5.72;;;14.40;99.90;;;;;;5074970;28;20037;-68
2022/05/11 05:47:05;;;;;;;8.73;4.45;;;14.40;99.90;;;;;;5073446;28;20041;-68
2022/05/11 05:49:31;;;;;;;9.15;4.63;;;14.40;99.90;;;;;;5073310;28;20040;-68
2022/05/11 05:51:58;;;;;;;8.57;4.20;;;14.50;99.90;;;;;;5074374;28;20041;-68
2022/05/11 05:54:25;;;;;;;8.10;4.63;;;14.50;99.90;;;;;;5074464;28;20037;-68
2022/05/11 05:56:51;;;;;;;10.27;4.70;;;14.50;99.90;;;;;;5073227;28;20049;-68
2022/05/11 05:59:17;;;;;;;9.73;4.75;;;14.60;99.90;;;;;;5074666;28;20064;-69
2022/05/11 06:01:43;;;;;;;10.10;4.57;;;14.60;99.90;;;;;;5074269;28;20508;-68
2022/05/11 06:04:09;;;;;;;7.38;4.47;;;14.60;99.90;;;;;;5074524;28;20128;-68
2022/05/11 06:06:34;;;;;;;9.07;4.47;;;14.70;99.90;;;;;;5074232;28;20044;-68
2022/05/11 06:09:00;;;;;;;9.13;4.88;;;14.70;99.90;;;;;;5072773;28;20079;-68
2022/05/11 06:11:25;;;;;;;9.27;5.15;;;14.80;99.90;;;;;;5074164;28;20032;-69
2022/05/11 06:13:51;;;;;;;12.55;5.43;;;14.80;99.90;;;;;;5074353;28;20454;-68
2022/05/11 06:16:17;;;;;;;8.77;4.45;;;14.80;99.90;;;;;;5074245;28;20028;-69
2022/05/11 06:18:45;;;;;;;10.77;4.88;;;14.80;99.90;;;;;;5074298;28;20115;-68
2022/05/11 06:21:13;;;;;;;11.68;5.20;;;14.80;99.90;;;;;;5073897;28;20039;-69
2022/05/11 06:23:38;;;;;;;10.40;5.45;;;14.70;99.90;;;;;;5074131;28;20410;-68
2022/05/11 06:26:04;;;;;;;11.00;4.93;;;14.80;99.90;;;;;;5074133;28;20032;-68
2022/05/11 06:28:31;;;;;;;10.18;5.15;;;14.80;99.90;;;;;;5078584;28;20040;-68
2022/05/11 06:30:56;;;;;;;12.13;5.47;;;14.80;99.90;;;;;;5072474;28;20041;-68
2022/05/11 06:33:22;;;;;;;13.07;4.35;;;14.80;99.90;;;;;;5073974;28;20413;-68
2022/05/11 06:35:47;;;;;;;9.77;5.47;;;14.90;99.90;;;;;;5073803;28;20477;-68
2022/05/11 06:38:13;;;;;;;10.70;5.18;;;15.00;99.90;;;;;;5073668;28;20033;-69
2022/05/11 06:40:39;;;;;;;10.98;5.10;;;15.00;99.90;;;;;;5073610;28;20093;-68
2022/05/11 06:43:05;;;;;;;8.57;5.60;;;15.10;99.90;;;;;;5073871;28;20040;-69
2022/05/11 06:45:31;;;;;;;9.75;4.93;;;15.30;99.90;;;;;;5073605;28;20036;-69
2022/05/11 06:47:57;;;;;;;17.20;6.55;;;15.40;99.90;;;;;;5072912;28;20089;-68
2022/05/11 06:50:27;;;;;;;14.30;5.53;;;15.50;99.90;;;;;;5073263;28;20079;-68
2022/05/11 06:52:54;;;;;;;13.00;4.65;;;15.50;99.90;;;;;;5072255;28;20048;-68
2022/05/11 07:00:49;;;;;;;10.50;5.03;;;15.50;99.90;;;;;;5073096;28;20044;-69
2022/05/11 07:03:15;;;;;;;13.82;5.53;;;15.40;99.90;;;;;;5073181;28;20098;-68
2022/05/11 07:05:43;;;;;;;12.77;5.68;;;15.40;99.90;;;;;;5073259;28;20460;-68
2022/05/11 07:08:09;;;;;;;12.45;5.78;;;15.40;99.90;;;;;;5071957;28;20072;-68
2022/05/11 07:10:42;;;;;;;12.48;5.70;;;15.40;99.90;;;;;;5072814;28;20036;-69
2022/05/11 07:13:08;;;;;;;13.55;5.90;;;15.40;99.90;;;;;;5073254;28;20086;-68
2022/05/11 07:15:34;;;;;;;13.43;5.82;;;15.40;99.90;;;;;;5072955;28;20413;-69
2022/05/11 07:18:03;;;;;;;15.38;6.22;;;15.30;99.90;;;;;;5074886;28;20045;-69
2022/05/11 07:20:36;;;;;;;15.75;6.35;;;15.30;99.90;;;;;;5078530;28;20048;-69
2022/05/11 07:23:04;;;;;;;12.82;5.97;;;15.30;99.90;;;;;;5080229;28;20442;-68
2022/05/11 07:25:31;;;;;;;15.63;5.78;;;15.30;99.90;;;;;;5079856;28;20388;-68
2022/05/11 07:27:58;;;;;;;11.93;6.10;;;15.40;99.90;;;;;;5079587;28;20452;-69
2022/05/11 07:30:30;;;;;;;15.63;6.40;;;15.40;99.90;;;;;;5061697;28;20069;-67
2022/05/11 07:32:56;;;;;;;11.48;5.60;;;15.50;99.90;;;;;;5051913;28;20075;-67
2022/05/11 07:35:21;;;;;;;13.15;5.03;;;15.60;99.90;;;;;;5052969;28;20064;-68
2022/05/11 07:37:47;;;;;;;14.95;6.25;;;15.70;99.90;;;;;;5052695;28;20087;-68
2022/05/11 07:40:16;;;;;;;16.17;5.68;;;15.70;99.90;;;;;;5051194;28;20690;-68
2022/05/11 07:42:43;;;;;;;16.48;6.60;;;15.80;99.90;;;;;;5052729;28;20044;-68
2022/05/11 07:45:10;;;;;;;15.50;6.07;;;15.90;99.90;;;;;;5052905;28;20052;-68
2022/05/11 07:47:36;;;;;;;12.82;6.80;;;16.00;99.90;;;;;;5052421;28;20495;-68
2022/05/11 07:50:02;;;;;;;11.60;5.85;;;16.10;99.90;;;;;;5052215;28;20044;-68
2022/05/11 07:52:28;;;;;;;17.50;7.18;;;16.30;99.90;;;;;;5052477;28;20033;-68
2022/05/11 07:54:53;;;;;;;14.70;6.57;;;16.30;99.90;;;;;;5052404;28;20037;-68
2022/05/11 08:00:06;;;;;;;17.60;7.15;;;16.40;99.90;;;;;;5052012;28;20407;-68
2022/05/11 08:02:36;;;;;;;13.18;6.30;;;16.30;99.90;;;;;;5051129;28;20048;-68
2022/05/11 08:05:13;;;;;;;11.43;6.25;;;16.40;99.90;;;;;;5051063;28;20120;-68
2022/05/11 08:08:02;;;;;;;20.83;7.10;;;16.50;99.90;;;;;;5052081;28;20044;-68
2022/05/11 08:10:56;;;;;;;14.02;6.38;;;16.50;99.90;;;;;;5052031;28;20045;-68
2022/05/11 08:13:21;;;;;;;15.52;5.47;;;16.70;99.90;;;;;;5048082;28;20509;-68
2022/05/11 08:15:47;;;;;;;13.68;5.57;;;16.90;99.90;;;;;;5051899;28;20044;-68
2022/05/11 08:18:13;;;;;;;8.75;4.68;;;16.80;99.90;;;;;;5051977;28;20033;-68
2022/05/11 08:20:42;;;;;;;16.95;6.18;;;16.90;99.90;;;;;;5051878;28;20087;-68
2022/05/11 08:23:09;;;;;;;12.93;4.97;;;17.00;99.90;;;;;;5061846;28;20033;-68
2022/05/11 08:25:37;;;;;;;10.23;4.53;;;17.10;99.90;;;;;;5062705;28;20094;-68
2022/05/11 08:28:12;;;;;;;13.68;4.45;;;17.30;99.90;;;;;;5061469;28;20494;-68
2022/05/11 08:33:27;;;;;;;9.85;3.85;;;17.40;99.90;;;;;;5052032;28;20037;-68
2022/05/11 08:35:57;;;;;;;11.45;4.20;;;17.50;99.90;;;;;;5051786;28;20037;-68
2022/05/11 08:38:25;;;;;;;15.18;3.50;;;17.50;99.90;;;;;;5050537;28;20047;-68
2022/05/11 08:41:04;;;;;;;13.48;3.85;;;17.50;99.90;;;;;;5050183;28;20088;-68
2022/05/11 08:43:31;;;;;;;13.23;4.43;;;17.50;99.90;;;;;;5050489;28;20044;-69
2022/05/11 08:46:22;;;;;;;10.68;3.17;;;17.50;99.90;;;;;;5051817;28;20047;-68
2022/05/11 08:49:01;;;;;;;10.52;3.38;;;17.50;99.90;;;;;;5051695;28;20041;-68
2022/05/11 08:51:31;;;;;;;10.00;3.20;;;17.60;99.90;;;;;;5051335;28;20118;-69
2022/05/11 08:54:24;;;;;;;14.93;4.85;;;17.60;99.90;;;;;;5051820;28;20044;-68
2022/05/11 08:56:52;;;;;;;11.85;3.50;;;17.60;99.90;;;;;;5051505;28;20550;-68
2022/05/11 08:59:27;;;;;;;15.10;4.70;;;17.70;99.90;;;;;;5051660;28;20059;-68
2022/05/11 09:02:19;;;;;;;12.18;3.53;;;17.60;99.30;;;;;;5051218;28;20490;-69
2022/05/11 09:04:51;;;;;;;11.98;3.90;;;17.70;99.90;;;;;;5059655;28;20094;-68
2022/05/11 09:07:17;;;;;;;9.90;3.55;;;17.70;99.90;;;;;;5061922;28;20091;-68
2022/05/11 09:09:43;;;;;;;9.43;3.83;;;17.60;99.90;;;;;;5060149;28;20043;-68
2022/05/11 09:12:10;;;;;;;12.75;3.55;;;17.70;99.40;;;;;;5064378;28;20029;-68
2022/05/11 09:14:44;;;;;;;14.77;3.90;;;17.80;99.60;;;;;;5064191;28;20066;-68
2022/05/11 09:17:31;;;;;;;14.05;3.30;;;17.70;98.20;;;;;;5066050;28;20044;-68
2022/05/11 09:20:20;;;;;;;13.65;3.65;;;17.80;99.40;;;;;;5064420;28;20049;-68
2022/05/11 09:23:04;;;;;;;13.02;3.67;;;17.80;99.60;;;;;;5065192;28;20037;-68
2022/05/11 09:25:35;;;;;;;13.20;3.72;;;18.00;99.90;;;;;;5065830;28;20044;-68
2022/05/11 09:28:21;;;;;;;9.77;3.03;;;18.60;97.20;;;;;;5074715;28;20494;-68
2022/05/11 09:31:01;;;;;;;10.30;2.72;;;18.70;97.00;;;;;;5074670;28;20052;-69
2022/05/11 09:33:33;;;;;;;13.55;2.72;;;18.60;93.90;;;;;;5075180;28;20033;-68
2022/05/11 09:36:02;;;;;;;11.82;3.75;;;18.60;95.20;;;;;;5074828;28;20044;-69
2022/05/11 09:38:40;;;;;;;16.15;3.63;;;18.40;95.60;;;;;;5074982;28;20044;-68
2022/05/11 09:41:18;;;;;;;13.98;3.20;;;18.20;95.60;;;;;;5074647;28;20120;-68
2022/05/11 09:43:54;;;;;;;14.13;3.92;;;18.00;95.50;;;;;;5074763;28;20536;-68
2022/05/11 09:46:32;;;;;;;9.57;3.65;;;18.00;97.20;;;;;;5073679;28;20044;-68
2022/05/11 09:49:25;;;;;;;16.77;3.40;;;18.00;98.70;;;;;;5074683;28;20044;-68
2022/05/11 09:51:56;;;;;;;18.33;3.78;;;18.30;95.30;;;;;;5074325;28;20040;-68
2022/05/11 09:54:48;;;;;;;11.43;3.45;;;18.70;95.80;;;;;;5074850;28;20111;-68
2022/05/11 09:57:27;;;;;;;12.75;2.90;;;19.10;96.80;;;;;;5074540;28;20036;-68
2022/05/11 10:00:07;;;;;;;16.70;4.70;;;19.00;93.70;;;;;;5074451;28;20044;-68
2022/05/11 10:02:38;;;;;;;7.13;2.80;;;19.00;94.90;;;;;;5074423;28;20724;-68
2022/05/11 10:05:15;;;;;;;9.10;3.08;;;19.20;94.90;;;;;;5070892;28;20424;-68
2022/05/11 10:07:59;;;;;;;14.15;3.85;;;19.40;93.60;;;;;;5054335;28;20502;-68
2022/05/11 10:10:34;;;;;;;15.07;3.60;;;19.30;92.70;;;;;;5054029;28;20040;-68
2022/05/11 10:13:21;;;;;;;23.13;4.68;;;19.00;91.40;;;;;;5053099;28;20487;-68
2022/05/11 10:24:19;;;;;;;13.80;3.60;;;18.10;96.10;;;;;;5053345;28;20083;-69
2022/05/11 10:27:17;;;;;;;8.93;3.15;;;18.00;96.40;;;;;;5054260;28;20338;-68
2022/05/11 10:30:13;;;;;;;10.52;2.67;;;18.10;97.50;;;;;;5054338;28;20084;-68
2022/05/11 10:33:11;;;;;;;13.55;3.63;;;18.20;96.50;;;;;;5053033;28;20047;-68
2022/05/11 10:36:15;;;;;;;12.93;3.00;;;18.60;96.10;;;;;;5053869;28;20044;-68
2022/05/11 10:39:15;;;;;;;11.60;3.53;;;18.60;92.90;;;;;;5011916;28;20041;-68
2022/05/11 10:42:04;;;;;;;13.93;3.33;;;18.60;94.90;;;;;;5011705;28;20081;-68
2022/05/11 10:44:42;;;;;;;10.57;3.38;;;18.90;96.00;;;;;;5050093;28;20044;-68
2022/05/11 10:47:44;;;;;;;9.30;3.22;;;19.20;95.50;;;;;;5061443;28;20441;-69
2022/05/11 10:50:26;;;;;;;9.52;3.03;;;19.20;90.30;;;;;;5063726;28;20504;-68
2022/05/11 10:53:03;;;;;;;7.75;2.70;;;19.30;89.20;;;;;;5064419;28;20402;-69
2022/05/11 10:55:53;;;;;;;8.68;3.72;;;19.50;91.40;;;;;;5058703;28;20041;-68
2022/05/11 10:58:54;;;;;;;8.77;2.67;;;19.50;85.30;;;;;;5052295;28;20052;-68
2022/05/11 11:01:22;;;;;;;8.68;3.97;;;19.70;86.00;;;;;;5053448;28;20399;-68
2022/05/11 11:04:04;;;;;;;8.00;2.83;;;19.70;87.00;;;;;;5053473;28;20033;-68
2022/05/11 11:10:07;;;;;;;10.70;2.33;;;19.70;84.70;;;;;;5053361;28;20052;-68
2022/05/11 11:12:41;;;;;;;12.68;3.15;;;19.60;81.80;;;;;;5053300;28;20075;-68
2022/05/11 11:15:12;;;;;;;9.10;2.50;;;19.70;83.40;;;;;;5053199;28;20483;-68
2022/05/11 11:17:40;;;;;;;7.85;2.05;;;19.90;78.90;;;;;;5062734;28;20433;-69
2022/05/11 11:20:07;;;;;;;9.40;2.15;;;20.00;77.40;;;;;;5072695;28;20086;-69
2022/05/11 11:23:01;;;;;;;11.25;3.20;;;20.10;76.40;;;;;;5056723;28;20456;-69
2022/05/11 11:25:26;;;;;;;;;;;19.90;72.10;;;;;;5069017;28;20509;-69
2022/05/11 11:28:08;;;;;;;6.60;2.05;;;19.60;71.90;;;;;;5071725;28;19959;-69
2022/05/11 11:30:41;;;;;;;6.80;2.10;;;19.80;75.20;;;;;;5072588;28;20037;-69
2022/05/11 11:33:13;;;;;;;11.27;2.40;;;20.00;77.90;;;;;;5072435;28;20470;-69
2022/05/11 11:35:55;;;;;;;8.23;2.67;;;20.00;75.00;;;;;;5071324;28;20387;-69
2022/05/11 11:38:33;;;;;;;7.03;2.35;;;20.10;74.10;;;;;;5067651;28;20048;-68
2022/05/11 11:41:22;;;;;;;10.43;2.67;;;20.20;73.60;;;;;;5065776;28;20045;-68
2022/05/11 11:44:01;;;;;;;5.82;2.20;;;20.30;77.50;;;;;;5072368;28;20048;-68
2022/05/11 11:46:36;;;;;;;6.70;1.20;;;20.30;72.00;;;;;;5072155;28;20037;-68
2022/05/11 11:49:09;;;;;;;7.55;2.05;;;20.10;68.50;;;;;;5072338;28;20123;-68
2022/05/11 11:51:56;;;;;;;9.65;1.73;;;20.10;68.20;;;;;;5072125;28;20045;-68
2022/05/11 11:54:37;;;;;;;5.07;2.00;;;20.10;65.80;;;;;;5072404;28;20517;-68
2022/05/11 11:57:22;;;;;;;5.18;1.38;;;20.10;68.00;;;;;;5072125;28;20048;-68
2022/05/11 12:00:18;;;;;;;8.88;2.13;;;20.10;67.30;;;;;;5068889;28;20132;-68
2022/05/11 12:02:44;;;;;;;5.55;1.40;;;19.90;65.40;;;;;;5034317;28;20084;-68
2022/05/11 12:05:12;;;;;;;6.07;2.17;;;19.80;68.80;;;;;;5061364;28;20514;-68
2022/05/11 12:16:19;;;;;;;6.53;1.67;;;19.70;67.10;;;;;;5072053;28;20040;-68
2022/05/11 12:18:46;;;;;;;9.07;2.25;;;19.90;67.40;;;;;;5072105;28;20086;-68
2022/05/11 12:21:29;;;;;;;6.45;1.42;;;20.20;69.50;;;;;;5070388;28;20052;-68
2022/05/11 12:23:57;;;;;;;8.02;1.85;;;20.30;66.30;;;;;;5071772;28;20040;-68
2022/05/11 12:26:35;;;;;;;8.57;1.60;;;20.10;63.10;;;;;;5070504;28;20036;-68
2022/05/11 12:32:01;;;;;;;4.90;1.50;;;20.30;64.80;;;;;;5071637;28;20040;-69
2022/05/11 12:34:29;;;;;;;9.52;2.00;;;20.40;65.30;;;;;;5071712;28;20033;-68
2022/05/11 12:36:55;;;;;;;9.13;1.75;;;20.40;66.60;;;;;;5071929;28;20036;-68
2022/05/11 12:39:32;;;;;;;7.70;1.30;;;20.40;64.80;;;;;;5071906;28;20090;-68
2022/05/11 12:41:57;;;;;;;6.43;1.73;;;20.60;63.10;;;;;;5071350;28;20036;-68
2022/05/11 12:44:30;;;;;;;6.22;1.58;;;20.50;63.50;;;;;;5070894;28;20032;-69
2022/05/11 12:46:58;;;;;;;5.40;1.63;;;20.60;65.30;;;;;;5071488;28;20662;-68
2022/05/11 12:49:26;;;;;;;6.85;1.90;;;20.60;63.80;;;;;;5071760;28;20044;-68
2022/05/11 12:51:57;;;;;;;6.13;2.10;;;20.60;63.30;;;;;;5071321;28;20583;-68
2022/05/11 12:54:27;;;;;;;5.70;2.00;;;20.60;61.80;;;;;;5071668;28;20047;-69
2022/05/11 12:57:01;;;;;;;6.25;1.95;;;20.60;61.20;;;;;;5071567;28;20059;-68
2022/05/11 12:59:29;;;;;;;6.18;1.75;;;20.60;60.60;;;;;;5071423;28;20047;-68
2022/05/11 13:02:14;;;;;;;7.80;1.60;;;20.60;61.10;;;;;;5071090;28;20446;-69
2022/05/11 13:05:00;;;;;;;11.50;2.10;;;20.80;61.70;;;;;;5071518;28;20145;-68
2022/05/11 13:07:26;;;;;;;8.95;1.85;;;21.00;63.20;;;;;;5071217;28;20032;-68
2022/05/11 13:09:55;;;;;;;17.60;3.03;;;21.10;60.20;;;;;;5071200;28;20413;-68
2022/05/11 13:12:21;;;;;;;11.40;1.88;;;21.20;60.20;;;;;;5071543;28;20068;-68
2022/05/11 13:14:50;;;;;;;10.63;2.00;;;21.50;60.80;;;;;;5071482;28;20086;-68
2022/05/11 13:17:23;;;;;;;8.55;2.67;;;21.50;60.30;;;;;;5070313;28;20473;-68
2022/05/11 13:19:59;;;;;;;9.52;2.08;;;21.60;58.70;;;;;;5071407;28;20052;-68
2022/05/11 13:22:28;;;;;;;7.07;1.95;;;21.50;56.00;;;;;;5071224;28;20040;-68
2022/05/11 13:25:04;;;;;;;12.95;2.22;;;21.50;57.60;;;;;;5071458;28;20083;-68
2022/05/11 13:27:32;;;;;;;9.43;2.30;;;21.60;57.00;;;;;;5070382;28;20572;-68
2022/05/11 13:30:07;;;;;;;7.68;1.88;;;21.40;55.90;;;;;;5070921;28;20506;-68
2022/05/11 13:32:48;;;;;;;10.63;2.03;;;21.30;56.40;;;;;;5071164;28;20040;-69
2022/05/11 13:35:38;;;;;;;8.40;2.85;;;21.50;58.70;;;;;;5071309;28;20567;-69
2022/05/11 13:38:09;;;;;;;5.70;1.83;;;21.60;58.80;;;;;;5071407;28;20120;-68
2022/05/11 13:40:49;;;;;;;7.60;1.58;;;21.70;57.50;;;;;;5070879;28;20486;-69
2022/05/11 13:43:25;;;;;;;6.65;1.95;;;21.60;54.20;;;;;;5071149;28;20044;-69
2022/05/11 13:45:56;;;;;;;8.40;2.00;;;21.50;55.60;;;;;;5071195;28;20074;-69